createdAt,value
2023-01-04T09:32:35.952Z,7.00
2023-01-04T10:15:53.109Z,8.70
2023-01-04T10:21:31.479Z,9.00
2023-01-04T10:26:32.857Z,9.30
2023-01-04T10:31:39.857Z,9.60
2023-01-04T10:36:35.507Z,9.90
2023-01-04T10:41:33.459Z,10.10
2023-01-04T10:46:45.757Z,10.40
2023-01-04T10:51:46.174Z,10.70
2023-01-04T10:56:46.410Z,11.10
2023-01-04T11:01:47.323Z,11.30
2023-01-04T11:06:46.553Z,11.60
2023-01-04T11:11:44.871Z,11.90
2023-01-04T11:16:39.710Z,12.10
2023-01-04T11:21:41.114Z,12.20
2023-01-04T11:26:40.082Z,12.50
2023-01-04T11:31:45.802Z,12.90
2023-01-04T11:36:43.308Z,13.20
2023-01-04T11:41:37.489Z,13.50
2023-01-04T11:46:32.054Z,14.00
2023-01-04T11:51:39.743Z,14.60
2023-01-04T11:56:36.688Z,15.00
2023-01-04T12:01:35.440Z,15.30
2023-01-04T12:06:37.907Z,15.30
2023-01-04T12:11:36.616Z,15.60
2023-01-04T12:16:48.898Z,15.70
2023-01-04T12:21:46.148Z,15.70
2023-01-04T12:26:47.888Z,15.90
2023-01-04T12:31:41.544Z,15.90
2023-01-04T12:37:02.957Z,15.90
2023-01-04T12:42:26.693Z,16.00
2023-01-04T12:48:01.298Z,15.90
2023-01-04T12:53:29.432Z,15.30
2023-01-04T13:04:04.660Z,15.00
2023-01-04T13:08:59.654Z,15.20
2023-01-04T13:14:01.448Z,15.40
2023-01-04T13:18:58.071Z,15.40
2023-01-04T13:23:53.753Z,15.30
2023-01-04T13:28:51.195Z,15.30
2023-01-04T13:33:50.092Z,15.30
2023-01-04T13:38:43.671Z,15.20
2023-01-04T13:43:58.293Z,14.80
2023-01-04T13:48:56.464Z,14.00
2023-01-04T13:53:58.275Z,13.60
2023-01-04T13:58:52.319Z,13.90
2023-01-04T14:03:48.692Z,13.30
2023-01-04T14:08:52.310Z,12.70
2023-01-04T14:13:48.756Z,12.20
2023-01-04T14:18:47.347Z,11.90
2023-01-04T14:23:41.148Z,11.80
2023-01-04T14:28:49.056Z,11.60
2023-01-04T14:33:46.102Z,11.40
2023-01-04T14:38:42.811Z,11.20
2023-01-04T14:43:44.468Z,11.00
2023-01-04T14:48:39.305Z,10.80
2023-01-04T14:53:33.550Z,10.60
2023-01-04T14:58:29.752Z,10.40
2023-01-04T15:03:24.835Z,10.30
2023-01-04T15:08:18.635Z,10.00
2023-01-04T15:13:12.933Z,9.60
2023-01-04T15:18:06.912Z,9.40
2023-01-04T15:23:03.259Z,9.30
2023-01-04T15:27:57.393Z,9.20
2023-01-04T15:32:51.269Z,9.00
2023-01-04T15:37:45.749Z,8.80
2023-01-04T15:42:58.194Z,8.70
2023-01-04T15:47:52.163Z,8.50
2023-01-04T15:52:45.904Z,8.30
2023-01-04T15:57:44.007Z,8.20
2023-01-04T16:02:39.100Z,8.10
2023-01-04T16:07:36.392Z,8.00
2023-01-04T16:12:49.843Z,7.90
2023-01-04T16:17:47.082Z,7.90
2023-01-04T16:22:40.885Z,7.80
2023-01-04T16:27:35.958Z,7.60
2023-01-04T16:32:29.605Z,7.30
2023-01-04T16:37:28.246Z,7.20
2023-01-04T16:42:22.900Z,7.10
2023-01-04T16:47:16.632Z,7.20
2023-01-04T16:52:12.521Z,7.20
2023-01-04T16:57:07.554Z,7.10
2023-01-04T17:02:01.296Z,7.10
2023-01-04T17:06:58.513Z,7.10
2023-01-04T17:17:18.597Z,7.10
2023-01-04T17:22:13.560Z,7.10
2023-01-04T17:27:08.607Z,7.10
2023-01-04T17:32:02.314Z,7.10
2023-01-04T17:36:57.459Z,7.00
2023-01-04T17:41:51.216Z,7.00
2023-01-04T17:46:44.762Z,7.00
2023-01-04T17:51:38.446Z,7.00
2023-01-04T17:56:34.457Z,7.00
2023-01-04T18:01:28.992Z,6.90
2023-01-04T18:06:25.924Z,6.90
2023-01-04T18:11:19.989Z,6.90
2023-01-04T18:16:24.269Z,6.90
